Time;durP1;ratioP1;P1;durP2;ratioP2;P2;SDS_P1;SDS_P2;PMS_P1;PMS_P2;Temp;Humidity;BMP_temperature;BMP_pressure;BME280_temperature;BME280_humidity;BME280_pressure;Samples;Min_cycle;Max_cycle;Signal;HPM_P1;HPM_P2
2023/06/07 00:00:44;;;;;;;20.17;10.05;;;;;;;;;;6116707;23;20789;-46
2023/06/07 00:03:17;;;;;;;19.15;10.23;;;;;;;;;;6113095;23;20537;-67
2023/06/07 00:05:45;;;;;;;19.17;9.85;;;;;;;;;;6114450;23;20808;-55
2023/06/07 00:08:12;;;;;;;29.55;10.68;;;;;;;;;;6117500;23;20025;-52
2023/06/07 00:10:46;;;;;;;20.95;10.63;;;;;;;;;;6113399;23;20022;-53
2023/06/07 00:13:13;;;;;;;21.35;10.27;;;;;;;;;;6111510;23;20065;-51
2023/06/07 00:15:47;;;;;;;25.75;11.35;;;;;;;;;;6114426;23;20026;-52
2023/06/07 00:18:15;;;;;;;23.85;11.30;;;;;;;;;;6118364;23;20481;-50
2023/06/07 00:20:45;;;;;;;22.90;11.82;;;;;;;;;;6116435;23;20100;-46
2023/06/07 00:23:20;;;;;;;21.02;10.77;;;;;;;;;;6117000;23;20494;-46
2023/06/07 00:25:48;;;;;;;23.45;11.15;;;;;;;;;;6116909;23;20053;-46
2023/06/07 00:28:15;;;;;;;18.40;9.75;;;;;;;;;;6116140;23;20505;-46
2023/06/07 00:30:49;;;;;;;26.67;9.88;;;;;;;;;;6116034;23;20026;-66
2023/06/07 00:33:16;;;;;;;15.75;9.30;;;;;;;;;;6117510;23;20030;-66
2023/06/07 00:36:11;;;;;;;20.83;10.05;;;;;;;;;;6115878;23;20109;-46
2023/06/07 00:38:45;;;;;;;18.42;9.65;;;;;;;;;;6115937;23;20030;-46
2023/06/07 00:41:20;;;;;;;24.05;10.20;;;;;;;;;;6116388;23;20037;-46
2023/06/07 00:43:47;;;;;;;21.83;10.13;;;;;;;;;;6113838;23;20422;-49
2023/06/07 00:46:17;;;;;;;18.75;10.27;;;;;;;;;;6115535;23;20077;-47
2023/06/07 00:48:51;;;;;;;25.95;10.25;;;;;;;;;;6116138;23;20026;-49
2023/06/07 00:51:19;;;;;;;27.70;11.32;;;;;;;;;;6117020;23;20110;-51
2023/06/07 00:53:46;;;;;;;;;;;;;;;;;;6112844;23;20417;-53
2023/06/07 00:56:20;;;;;;;26.00;11.73;;;;;;;;;;6117402;23;19928;-53
2023/06/07 00:58:47;;;;;;;26.60;12.63;;;;;;;;;;6114487;23;20034;-52
2023/06/07 01:01:21;;;;;;;29.85;11.82;;;;;;;;;;6115084;23;20030;-57
2023/06/07 01:03:49;;;;;;;27.13;12.27;;;;;;;;;;6117626;23;20081;-52
2023/06/07 01:06:16;;;;;;;27.00;11.63;;;;;;;;;;6115118;23;20026;-55
2023/06/07 01:08:51;;;;;;;32.53;13.05;;;;;;;;;;6117329;23;20141;-49
2023/06/07 01:11:20;;;;;;;32.30;12.98;;;;;;;;;;6114923;23;20033;-49
2023/06/07 01:13:48;;;;;;;29.98;12.38;;;;;;;;;;6114963;23;20033;-49
2023/06/07 01:16:22;;;;;;;24.48;10.50;;;;;;;;;;6116265;23;20037;-48
2023/06/07 01:18:49;;;;;;;25.52;11.98;;;;;;;;;;6115336;23;20594;-48
2023/06/07 01:21:23;;;;;;;24.90;11.02;;;;;;;;;;6114359;23;20081;-61
2023/06/07 01:23:51;;;;;;;24.92;11.45;;;;;;;;;;6115234;23;20053;-62
2023/06/07 01:26:18;;;;;;;29.52;11.38;;;;;;;;;;6117123;23;20022;-61
2023/06/07 01:28:52;;;;;;;30.15;12.52;;;;;;;;;;6110534;23;20298;-61
2023/06/07 01:31:21;;;;;;;29.27;12.93;;;;;;;;;;6116360;23;20583;-61
2023/06/07 01:33:56;;;;;;;25.65;11.35;;;;;;;;;;6112461;23;20612;-61
2023/06/07 01:36:25;;;;;;;30.23;10.98;;;;;;;;;;6116483;23;20097;-54
2023/06/07 01:38:53;;;;;;;22.58;10.13;;;;;;;;;;6115502;23;20022;-51
2023/06/07 01:41:31;;;;;;;26.80;10.98;;;;;;;;;;6116707;23;20053;-50
2023/06/07 01:43:59;;;;;;;20.85;10.48;;;;;;;;;;6116381;23;20373;-50
2023/06/07 01:46:47;;;;;;;19.33;10.13;;;;;;;;;;6115530;23;20026;-54
2023/06/07 01:49:21;;;;;;;19.88;10.05;;;;;;;;;;6115090;23;20080;-45
2023/06/07 01:51:55;;;;;;;26.90;10.85;;;;;;;;;;6117504;23;20029;-47
2023/06/07 01:54:29;;;;;;;28.80;11.05;;;;;;;;;;6117785;23;20026;-46
2023/06/07 01:57:16;;;;;;;17.77;10.50;;;;;;;;;;6114994;23;20026;-46
2023/06/07 01:59:50;;;;;;;18.67;9.85;;;;;;;;;;6111320;23;20025;-46
2023/06/07 02:02:24;;;;;;;18.35;9.85;;;;;;;;;;6115773;23;20026;-46
2023/06/07 02:04:56;;;;;;;22.00;10.38;;;;;;;;;;6112767;23;20025;-61
2023/06/07 02:07:24;;;;;;;21.05;10.82;;;;;;;;;;6114738;23;20030;-62
2023/06/07 02:09:59;;;;;;;22.40;11.70;;;;;;;;;;6116630;23;20022;-60
2023/06/07 02:12:28;;;;;;;29.23;11.30;;;;;;;;;;6114351;23;20034;-61
2023/06/07 02:15:03;;;;;;;24.40;11.32;;;;;;;;;;6115998;23;20037;-50
2023/06/07 02:17:32;;;;;;;28.75;11.02;;;;;;;;;;6115671;23;20096;-48
2023/06/07 02:20:08;;;;;;;27.10;12.25;;;;;;;;;;6114714;23;20486;-46
2023/06/07 02:22:36;;;;;;;29.30;13.50;;;;;;;;;;6116784;23;20029;-47
2023/06/07 02:25:09;;;;;;;26.92;12.50;;;;;;;;;;6116291;23;20026;-46
2023/06/07 02:27:36;;;;;;;27.05;12.77;;;;;;;;;;6115357;23;20025;-46
2023/06/07 02:30:04;;;;;;;28.02;13.13;;;;;;;;;;6112505;23;20026;-46
2023/06/07 02:32:38;;;;;;;32.60;12.50;;;;;;;;;;6116383;23;20025;-51
2023/06/07 02:35:07;;;;;;;24.80;11.80;;;;;;;;;;6115593;23;20029;-53
2023/06/07 02:37:41;;;;;;;23.02;11.20;;;;;;;;;;6116847;23;20105;-54
2023/06/07 02:40:09;;;;;;;23.88;13.48;;;;;;;;;;6114017;23;20473;-53
2023/06/07 02:42:36;;;;;;;23.75;11.70;;;;;;;;;;6114727;23;20026;-60
2023/06/07 02:45:11;;;;;;;24.63;11.63;;;;;;;;;;6115704;23;20081;-59
2023/06/07 02:47:45;;;;;;;23.38;11.18;;;;;;;;;;6113170;23;20025;-59
2023/06/07 02:50:21;;;;;;;9.23;5.90;;;;;;;;;;6112569;23;20485;-59
2023/06/07 02:52:48;;;;;;;10.18;6.55;;;;;;;;;;6115326;23;20022;-58
2023/06/07 02:55:15;;;;;;;14.63;7.72;;;;;;;;;;6114377;23;20025;-55
2023/06/07 02:57:50;;;;;;;17.90;9.10;;;;;;;;;;6112866;23;20030;-58
2023/06/07 03:00:17;;;;;;;16.92;8.43;;;;;;;;;;6112383;23;20032;-60
2023/06/07 03:02:51;;;;;;;17.40;8.40;;;;;;;;;;6115141;23;20026;-58
2023/06/07 03:05:19;;;;;;;16.70;9.30;;;;;;;;;;6114721;23;20032;-60
2023/06/07 03:07:46;;;;;;;14.00;8.18;;;;;;;;;;6114637;23;20026;-59
2023/06/07 03:10:20;;;;;;;20.50;8.73;;;;;;;;;;6114448;23;20026;-58
2023/06/07 03:12:47;;;;;;;15.32;8.52;;;;;;;;;;6112285;23;20029;-53
2023/06/07 03:15:21;;;;;;;25.13;10.52;;;;;;;;;;6113845;23;20025;-66
2023/06/07 03:17:48;;;;;;;20.95;9.60;;;;;;;;;;6114196;23;20090;-66
2023/06/07 03:20:18;;;;;;;17.38;9.60;;;;;;;;;;6114431;23;20912;-66
2023/06/07 03:22:52;;;;;;;16.38;8.73;;;;;;;;;;6114192;23;20744;-66
2023/06/07 03:25:19;;;;;;;18.48;8.43;;;;;;;;;;6114142;23;20153;-66
2023/06/07 03:27:54;;;;;;;17.73;9.00;;;;;;;;;;6113645;23;20093;-66
2023/06/07 03:30:21;;;;;;;14.23;8.77;;;;;;;;;;6113192;23;20018;-60
2023/06/07 03:32:48;;;;;;;13.98;8.65;;;;;;;;;;6108860;23;20536;-60
2023/06/07 03:35:22;;;;;;;17.83;9.10;;;;;;;;;;6115111;23;20021;-59
2023/06/07 03:37:50;;;;;;;18.98;8.80;;;;;;;;;;6114230;23;20025;-59
2023/06/07 03:40:17;;;;;;;19.60;9.77;;;;;;;;;;6112849;23;20686;-58
2023/06/07 03:42:50;;;;;;;20.55;9.55;;;;;;;;;;6113629;23;20552;-60
2023/06/07 03:45:17;;;;;;;19.30;10.40;;;;;;;;;;6112017;23;20042;-59
2023/06/07 03:48:04;;;;;;;18.90;10.02;;;;;;;;;;5774033;23;8087026;-59
2023/06/07 03:50:38;;;;;;;16.73;9.48;;;;;;;;;;6116552;23;20022;-59
2023/06/07 03:53:12;;;;;;;18.30;10.25;;;;;;;;;;6114591;23;20029;-59
2023/06/07 03:55:48;;;;;;;13.73;8.30;;;;;;;;;;6114648;23;20037;-58
2023/06/07 03:58:18;;;;;;;13.95;8.15;;;;;;;;;;6114224;23;20085;-53
2023/06/07 04:00:46;;;;;;;17.02;9.07;;;;;;;;;;6112910;23;20573;-51
2023/06/07 04:03:24;;;;;;;15.27;8.55;;;;;;;;;;6113815;23;20077;-55
2023/06/07 04:05:51;;;;;;;17.80;8.30;;;;;;;;;;6116910;23;20073;-51
2023/06/07 04:08:19;;;;;;;12.75;8.65;;;;;;;;;;6116003;23;20654;-46
2023/06/07 04:10:53;;;;;;;13.57;7.65;;;;;;;;;;6114272;23;20104;-65
2023/06/07 04:13:21;;;;;;;;;;;;;;;;;;6115547;23;20092;-59
2023/06/07 04:15:48;;;;;;;12.15;7.82;;;;;;;;;;6116030;23;19920;-58
2023/06/07 04:18:21;;;;;;;13.38;8.10;;;;;;;;;;6116575;23;20026;-59
2023/06/07 04:20:48;;;;;;;13.68;7.88;;;;;;;;;;6114369;23;20494;-59
2023/06/07 04:23:22;;;;;;;12.52;6.93;;;;;;;;;;6114924;23;20026;-59
2023/06/07 04:25:54;;;;;;;13.50;7.03;;;;;;;;;;6114388;23;20369;-60
2023/06/07 04:28:25;;;;;;;15.18;7.68;;;;;;;;;;6112397;23;20026;-53
2023/06/07 04:30:58;;;;;;;16.00;8.60;;;;;;;;;;6116066;23;20081;-59
2023/06/07 04:33:27;;;;;;;16.20;7.90;;;;;;;;;;6116234;23;20026;-59
2023/06/07 04:36:02;;;;;;;22.00;8.40;;;;;;;;;;6117121;23;20073;-59
2023/06/07 04:38:29;;;;;;;;;;;;;;;;;;6115624;23;20081;-59
2023/06/07 04:40:56;;;;;;;20.58;8.27;;;;;;;;;;6116303;23;19957;-59
2023/06/07 04:43:35;;;;;;;15.15;8.43;;;;;;;;;;6112244;23;20026;-58
2023/06/07 04:46:15;;;;;;;18.38;9.40;;;;;;;;;;6112564;23;20030;-50
2023/06/07 04:48:49;;;;;;;19.73;9.48;;;;;;;;;;6111423;23;20088;-49
2023/06/07 04:51:20;;;;;;;16.90;9.20;;;;;;;;;;6111937;23;20034;-51
2023/06/07 04:53:58;;;;;;;16.65;10.02;;;;;;;;;;6109332;23;20029;-51
2023/06/07 04:56:28;;;;;;;18.55;9.95;;;;;;;;;;6112410;23;20097;-64
2023/06/07 04:59:02;;;;;;;19.55;9.45;;;;;;;;;;6114157;23;20030;-64
2023/06/07 05:01:33;;;;;;;21.40;10.20;;;;;;;;;;6085214;23;20134;-64
2023/06/07 05:04:01;;;;;;;18.65;9.63;;;;;;;;;;6116364;23;20028;-64
2023/06/07 05:06:37;;;;;;;21.63;10.27;;;;;;;;;;6117129;23;20034;-63
2023/06/07 05:09:06;;;;;;;17.90;9.85;;;;;;;;;;6116165;23;20082;-64
2023/06/07 05:11:40;;;;;;;15.32;9.57;;;;;;;;;;6112674;23;20506;-64
2023/06/07 05:14:08;;;;;;;19.65;10.35;;;;;;;;;;6116321;23;20037;-49
2023/06/07 05:16:35;;;;;;;31.02;11.15;;;;;;;;;;6115626;23;20033;-50
2023/06/07 05:19:13;;;;;;;21.45;10.52;;;;;;;;;;6116753;23;20029;-52
2023/06/07 05:21:40;;;;;;;25.63;11.25;;;;;;;;;;6113828;23;20044;-52
2023/06/07 05:24:08;;;;;;;22.85;10.65;;;;;;;;;;6114358;23;20057;-58
2023/06/07 05:26:44;;;;;;;25.95;11.90;;;;;;;;;;6117130;23;20552;-48
2023/06/07 05:29:11;;;;;;;;;;;;;;;;;;6117088;23;20097;-48
2023/06/07 05:31:46;;;;;;;24.90;11.70;;;;;;;;;;6116536;23;19917;-47
2023/06/07 05:34:13;;;;;;;27.45;12.30;;;;;;;;;;6116132;23;20037;-49
2023/06/07 05:36:42;;;;;;;24.17;13.00;;;;;;;;;;6116749;23;20029;-49
2023/06/07 05:39:15;;;;;;;26.02;12.98;;;;;;;;;;6116601;23;20022;-49
2023/06/07 05:41:43;;;;;;;36.38;12.55;;;;;;;;;;6116744;23;20080;-50
2023/06/07 05:44:17;;;;;;;24.98;11.75;;;;;;;;;;6112843;23;20497;-50
2023/06/07 05:46:51;;;;;;;28.10;13.00;;;;;;;;;;6112243;23;20026;-52
2023/06/07 05:49:24;;;;;;;26.38;12.13;;;;;;;;;;6115602;23;20553;-51
2023/06/07 05:51:58;;;;;;;32.15;11.75;;;;;;;;;;6115671;23;20030;-58
2023/06/07 05:54:32;;;;;;;27.30;11.52;;;;;;;;;;6115259;23;20030;-47
2023/06/07 05:57:06;;;;;;;30.17;12.48;;;;;;;;;;6116484;23;20030;-49
2023/06/07 05:59:35;;;;;;;21.85;11.02;;;;;;;;;;6115980;23;20061;-48
2023/06/07 06:02:08;;;;;;;21.52;11.40;;;;;;;;;;6113730;23;20022;-50
2023/06/07 06:04:36;;;;;;;23.35;11.90;;;;;;;;;;6117312;23;20026;-51
2023/06/07 06:07:03;;;;;;;22.70;12.40;;;;;;;;;;6116337;23;20025;-47
2023/06/07 06:09:37;;;;;;;23.90;10.65;;;;;;;;;;6115905;23;20034;-50
2023/06/07 06:12:06;;;;;;;22.92;10.85;;;;;;;;;;6117273;23;20025;-58
2023/06/07 06:14:34;;;;;;;25.15;10.75;;;;;;;;;;6112187;23;20093;-58
2023/06/07 06:17:07;;;;;;;21.95;9.90;;;;;;;;;;6115051;23;20366;-58
2023/06/07 06:19:35;;;;;;;;;;;;;;;;;;6117937;23;20101;-58
2023/06/07 06:22:08;;;;;;;25.98;10.25;;;;;;;;;;6115759;23;19925;-49
2023/06/07 06:24:35;;;;;;;33.70;10.93;;;;;;;;;;6116436;23;20512;-57
2023/06/07 06:27:03;;;;;;;26.38;10.50;;;;;;;;;;6115165;23;20101;-57
2023/06/07 06:29:36;;;;;;;17.25;10.10;;;;;;;;;;6114871;23;20025;-58
2023/06/07 06:32:04;;;;;;;21.92;8.85;;;;;;;;;;6112653;23;20199;-58
2023/06/07 06:34:31;;;;;;;19.67;8.40;;;;;;;;;;6115136;23;20029;-58
2023/06/07 06:37:05;;;;;;;17.13;7.65;;;;;;;;;;6113112;23;20045;-58
2023/06/07 06:39:32;;;;;;;20.45;8.45;;;;;;;;;;6116844;23;20029;-63
2023/06/07 06:41:59;;;;;;;16.85;7.60;;;;;;;;;;6116656;23;20059;-63
2023/06/07 06:44:33;;;;;;;20.88;7.88;;;;;;;;;;6116135;23;20525;-63
2023/06/07 06:47:01;;;;;;;19.83;8.55;;;;;;;;;;6114940;23;20030;-63
2023/06/07 06:49:41;;;;;;;17.80;7.72;;;;;;;;;;6116041;23;20041;-57
2023/06/07 06:52:08;;;;;;;20.42;7.88;;;;;;;;;;6115941;23;20033;-52
2023/06/07 06:54:46;;;;;;;20.17;7.15;;;;;;;;;;6116098;23;20030;-49
2023/06/07 06:57:14;;;;;;;12.65;7.80;;;;;;;;;;6115772;23;20505;-50
2023/06/07 06:59:41;;;;;;;13.98;7.63;;;;;;;;;;6115422;23;20482;-50
2023/06/07 07:02:17;;;;;;;17.25;8.35;;;;;;;;;;6114839;23;20367;-53
2023/06/07 07:04:44;;;;;;;21.30;8.20;;;;;;;;;;6115544;23;20485;-48
2023/06/07 07:07:18;;;;;;;17.63;7.68;;;;;;;;;;6113999;23;20443;-49
2023/06/07 07:09:45;;;;;;;24.75;8.05;;;;;;;;;;6114496;23;20026;-47
2023/06/07 07:12:12;;;;;;;17.00;7.57;;;;;;;;;;6114542;23;20030;-51
2023/06/07 07:14:46;;;;;;;17.58;8.18;;;;;;;;;;6112569;23;20092;-46
2023/06/07 07:17:13;;;;;;;19.92;7.47;;;;;;;;;;6112495;23;20089;-54
2023/06/07 07:19:47;;;;;;;12.10;7.13;;;;;;;;;;6114584;23;20025;-58
2023/06/07 07:22:15;;;;;;;17.60;7.93;;;;;;;;;;6116866;23;20026;-50
2023/06/07 07:24:42;;;;;;;14.15;7.57;;;;;;;;;;6089026;23;20089;-47
2023/06/07 07:27:17;;;;;;;17.85;7.63;;;;;;;;;;6115454;23;20033;-49
2023/06/07 07:29:44;;;;;;;20.48;8.57;;;;;;;;;;6114347;23;20030;-47
2023/06/07 07:32:11;;;;;;;16.02;7.82;;;;;;;;;;6115711;23;20025;-50
2023/06/07 07:34:46;;;;;;;15.63;8.07;;;;;;;;;;6115561;23;20106;-50
2023/06/07 07:37:14;;;;;;;18.50;8.50;;;;;;;;;;6116586;23;20033;-55
2023/06/07 07:39:41;;;;;;;20.77;8.38;;;;;;;;;;6115166;23;20026;-54
2023/06/07 07:42:14;;;;;;;16.70;7.55;;;;;;;;;;6114622;23;20437;-55
2023/06/07 07:44:42;;;;;;;18.90;8.13;;;;;;;;;;6114535;23;20362;-55
2023/06/07 07:47:28;;;;;;;17.85;7.50;;;;;;;;;;6114756;23;20542;-53
2023/06/07 07:50:04;;;;;;;14.52;7.88;;;;;;;;;;6114475;23;20371;-52
2023/06/07 07:52:37;;;;;;;16.40;6.85;;;;;;;;;;6114896;23;20125;-54
2023/06/07 07:55:06;;;;;;;13.43;7.00;;;;;;;;;;6088904;23;20022;-54
2023/06/07 07:57:34;;;;;;;9.30;5.88;;;;;;;;;;6116583;23;20026;-56
2023/06/07 08:00:11;;;;;;;15.77;6.63;;;;;;;;;;6114943;23;20026;-55
2023/06/07 08:02:38;;;;;;;;;;;;;;;;;;6116075;23;20026;-55
2023/06/07 08:05:13;;;;;;;11.90;5.90;;;;;;;;;;6117305;23;19988;-55
2023/06/07 08:07:40;;;;;;;12.48;6.65;;;;;;;;;;6118380;23;20093;-56
2023/06/07 08:10:08;;;;;;;13.57;7.32;;;;;;;;;;6117355;23;20413;-52
2023/06/07 08:12:42;;;;;;;14.60;6.78;;;;;;;;;;6117419;23;20100;-56
2023/06/07 08:15:10;;;;;;;15.05;6.78;;;;;;;;;;6116188;23;20033;-55
2023/06/07 08:17:37;;;;;;;12.00;6.07;;;;;;;;;;6119124;23;20166;-49
2023/06/07 08:20:11;;;;;;;12.88;7.07;;;;;;;;;;6117205;23;20383;-48
2023/06/07 08:22:39;;;;;;;;;;;;;;;;;;6118830;23;20029;-51
2023/06/07 08:25:12;;;;;;;13.43;7.13;;;;;;;;;;6116873;23;19921;-51
2023/06/07 08:27:40;;;;;;;11.63;6.07;;;;;;;;;;6116733;23;20036;-49
2023/06/07 08:30:07;;;;;;;11.32;5.95;;;;;;;;;;6116378;23;20029;-48
2023/06/07 08:32:42;;;;;;;11.73;6.05;;;;;;;;;;6114739;23;20045;-63
2023/06/07 08:35:11;;;;;;;14.75;6.75;;;;;;;;;;6117298;23;20028;-63
2023/06/07 08:37:38;;;;;;;13.38;6.28;;;;;;;;;;6112514;23;20032;-62
2023/06/07 08:40:13;;;;;;;15.35;5.70;;;;;;;;;;6113433;23;20560;-63
2023/06/07 08:42:43;;;;;;;14.63;5.88;;;;;;;;;;6118222;23;20104;-64
2023/06/07 08:45:10;;;;;;;11.55;6.78;;;;;;;;;;6115562;23;20034;-57
2023/06/07 08:47:52;;;;;;;10.68;6.30;;;;;;;;;;6092637;23;20104;-63
2023/06/07 08:50:26;;;;;;;11.93;6.65;;;;;;;;;;6115846;23;20525;-63
2023/06/07 08:52:55;;;;;;;9.27;5.85;;;;;;;;;;6117551;23;20490;-63
2023/06/07 08:55:22;;;;;;;8.10;5.40;;;;;;;;;;6116664;23;20026;-63
2023/06/07 08:57:58;;;;;;;10.43;5.75;;;;;;;;;;6117193;23;20453;-62
2023/06/07 09:00:26;;;;;;;10.43;6.18;;;;;;;;;;6116061;23;20100;-62
2023/06/07 09:03:00;;;;;;;12.98;6.60;;;;;;;;;;6116467;23;20465;-62
2023/06/07 09:05:28;;;;;;;;;;;;;;;;;;6116541;23;20030;-63
2023/06/07 09:07:55;;;;;;;11.48;5.93;;;;;;;;;;6117289;23;19928;-62
2023/06/07 09:10:28;;;;;;;9.73;5.78;;;;;;;;;;6114771;23;20026;-64
2023/06/07 09:12:56;;;;;;;9.48;5.97;;;;;;;;;;6116207;23;20077;-50
2023/06/07 09:15:30;;;;;;;9.95;5.70;;;;;;;;;;6115856;23;20034;-58
2023/06/07 09:18:03;;;;;;;13.93;6.03;;;;;;;;;;6112573;23;20510;-57
2023/06/07 09:20:37;;;;;;;11.65;5.82;;;;;;;;;;6112934;23;20033;-58
2023/06/07 09:23:08;;;;;;;9.25;5.82;;;;;;;;;;6117838;23;20359;-58
2023/06/07 09:25:37;;;;;;;11.18;5.90;;;;;;;;;;6116179;23;20449;-57
2023/06/07 09:28:13;;;;;;;11.10;5.80;;;;;;;;;;6114731;23;20033;-58
2023/06/07 09:31:01;;;;;;;12.95;5.78;;;;;;;;;;6114632;23;20186;-53
2023/06/07 09:33:36;;;;;;;15.75;5.60;;;;;;;;;;6116954;23;20563;-53
2023/06/07 09:36:04;;;;;;;7.90;4.97;;;;;;;;;;6111940;23;20057;-55
2023/06/07 09:38:33;;;;;;;9.88;5.63;;;;;;;;;;6116510;23;20029;-55
2023/06/07 09:41:07;;;;;;;13.88;5.72;;;;;;;;;;6117309;23;20584;-63
2023/06/07 09:43:46;;;;;;;10.95;5.68;;;;;;;;;;6115816;23;20036;-54
2023/06/07 09:46:27;;;;;;;11.55;5.68;;;;;;;;;;6111175;23;20034;-55
2023/06/07 09:49:01;;;;;;;10.10;5.03;;;;;;;;;;6116262;23;20096;-55
2023/06/07 09:51:40;;;;;;;10.55;6.18;;;;;;;;;;6115328;23;20065;-55
2023/06/07 09:54:09;;;;;;;15.93;6.10;;;;;;;;;;6116281;23;20097;-54
2023/06/07 09:56:43;;;;;;;9.65;5.30;;;;;;;;;;6117298;23;20398;-53
2023/06/07 09:59:11;;;;;;;;;;;;;;;;;;6115496;23;20118;-63
2023/06/07 10:01:47;;;;;;;11.82;6.10;;;;;;;;;;6114747;23;20170;-63
2023/06/07 10:04:22;;;;;;;9.63;4.97;;;;;;;;;;6115628;23;20140;-63
2023/06/07 10:06:52;;;;;;;9.40;5.45;;;;;;;;;;6116949;23;20022;-63
2023/06/07 10:09:20;;;;;;;10.55;5.38;;;;;;;;;;6115932;23;20413;-63
2023/06/07 10:11:55;;;;;;;9.13;5.60;;;;;;;;;;6116898;23;20021;-58
2023/06/07 10:14:33;;;;;;;8.43;5.50;;;;;;;;;;6088541;23;20030;-59
2023/06/07 10:17:07;;;;;;;8.68;5.00;;;;;;;;;;6115213;23;20498;-58
2023/06/07 10:19:35;;;;;;;9.38;5.78;;;;;;;;;;6115817;23;20542;-59
2023/06/07 10:22:02;;;;;;;7.85;5.10;;;;;;;;;;6115729;23;20025;-58
2023/06/07 10:24:40;;;;;;;6.47;5.10;;;;;;;;;;6116194;23;20032;-58
2023/06/07 10:27:12;;;;;;;9.82;5.43;;;;;;;;;;6116181;23;20390;-56
2023/06/07 10:29:52;;;;;;;6.97;4.68;;;;;;;;;;6117151;23;20022;-56
2023/06/07 10:32:25;;;;;;;7.70;5.25;;;;;;;;;;6115290;23;20093;-54
2023/06/07 10:35:00;;;;;;;13.23;5.18;;;;;;;;;;6116228;23;20113;-54
2023/06/07 10:37:33;;;;;;;9.23;5.28;;;;;;;;;;6116093;23;20093;-53
2023/06/07 10:40:11;;;;;;;8.77;5.35;;;;;;;;;;6116960;23;20449;-63
2023/06/07 10:42:38;;;;;;;8.77;4.78;;;;;;;;;;6116592;23;20018;-63
2023/06/07 10:45:06;;;;;;;11.00;5.25;;;;;;;;;;6115825;23;20033;-63
2023/06/07 10:47:50;;;;;;;8.20;5.45;;;;;;;;;;6116751;23;20163;-63
2023/06/07 10:50:43;;;;;;;7.97;5.53;;;;;;;;;;6111781;23;20381;-63
2023/06/07 10:53:17;;;;;;;10.10;5.07;;;;;;;;;;6115979;23;20026;-62
2023/06/07 10:55:51;;;;;;;8.05;4.90;;;;;;;;;;6113670;23;20036;-64
2023/06/07 10:58:19;;;;;;;;;;;;;;;;;;6111876;23;20302;-63
2023/06/07 11:00:46;;;;;;;11.00;5.15;;;;;;;;;;6116895;23;20004;-63
2023/06/07 11:03:25;;;;;;;8.55;5.07;;;;;;;;;;6112625;23;20025;-64
2023/06/07 11:05:53;;;;;;;9.73;5.30;;;;;;;;;;6112259;23;20089;-64
2023/06/07 11:08:27;;;;;;;11.90;5.05;;;;;;;;;;6117457;23;20025;-59
2023/06/07 11:11:18;;;;;;;8.20;4.90;;;;;;;;;;6111799;23;20097;-59
2023/06/07 11:13:55;;;;;;;12.55;5.63;;;;;;;;;;6075112;23;20068;-59
2023/06/07 11:16:25;;;;;;;7.13;4.90;;;;;;;;;;6113074;23;20030;-57
2023/06/07 11:19:03;;;;;;;8.73;5.43;;;;;;;;;;6115995;23;20026;-59
2023/06/07 11:22:00;;;;;;;8.90;5.10;;;;;;;;;;6116150;23;20386;-59
2023/06/07 11:24:27;;;;;;;10.20;5.30;;;;;;;;;;6114440;23;20402;-59
2023/06/07 11:27:02;;;;;;;8.18;5.30;;;;;;;;;;6114908;23;20504;-59
2023/06/07 11:29:30;;;;;;;;;;;;;;;;;;6116461;23;20026;-59
2023/06/07 11:32:03;;;;;;;8.63;5.50;;;;;;;;;;6115552;23;19920;-58
2023/06/07 11:34:33;;;;;;;7.82;5.20;;;;;;;;;;6116291;23;20099;-59
2023/06/07 11:37:08;;;;;;;11.88;6.00;;;;;;;;;;6116235;23;20028;-51
2023/06/07 11:39:35;;;;;;;10.65;5.53;;;;;;;;;;6115477;23;20109;-54
2023/06/07 11:42:03;;;;;;;9.55;5.38;;;;;;;;;;6114201;23;20026;-53
2023/06/07 11:44:37;;;;;;;7.35;5.10;;;;;;;;;;6115231;23;20054;-54
2023/06/07 11:47:11;;;;;;;9.75;5.65;;;;;;;;;;6085424;23;20049;-53
2023/06/07 11:49:46;;;;;;;8.27;4.90;;;;;;;;;;6115719;23;20037;-53
2023/06/07 11:52:13;;;;;;;12.30;5.43;;;;;;;;;;6117249;23;20022;-59
2023/06/07 11:54:41;;;;;;;;;;;;;;;;;;6113915;23;20096;-58
2023/06/07 11:57:16;;;;;;;6.72;4.70;;;;;;;;;;6111417;23;19917;-59
2023/06/07 11:59:43;;;;;;;11.25;5.32;;;;;;;;;;6112270;23;20026;-59
2023/06/07 12:02:18;;;;;;;7.80;5.22;;;;;;;;;;6115610;23;20478;-53
2023/06/07 12:04:45;;;;;;;9.85;5.43;;;;;;;;;;6115208;23;20482;-62
2023/06/07 12:07:19;;;;;;;8.73;5.00;;;;;;;;;;6115246;23;20914;-63
2023/06/07 12:09:54;;;;;;;8.15;5.15;;;;;;;;;;6115563;23;20029;-62
2023/06/07 12:12:22;;;;;;;9.90;5.55;;;;;;;;;;6115762;23;20018;-63
2023/06/07 12:15:00;;;;;;;14.35;5.55;;;;;;;;;;6113874;23;20072;-61
2023/06/07 12:17:36;;;;;;;8.98;5.07;;;;;;;;;;6116696;23;20033;-61
2023/06/07 12:20:12;;;;;;;8.45;5.10;;;;;;;;;;6093280;23;20022;-49
2023/06/07 12:22:40;;;;;;;8.70;5.00;;;;;;;;;;6114582;23;20033;-48
2023/06/07 12:25:12;;;;;;;8.63;5.25;;;;;;;;;;6114383;23;20871;-47
2023/06/07 12:27:46;;;;;;;12.65;5.13;;;;;;;;;;6115860;23;20033;-50
2023/06/07 12:30:13;;;;;;;6.82;5.13;;;;;;;;;;6113660;23;20475;-51
2023/06/07 12:32:48;;;;;;;12.05;5.38;;;;;;;;;;6115620;23;20029;-52
2023/06/07 12:35:15;;;;;;;9.90;4.55;;;;;;;;;;6116156;23;20093;-56
2023/06/07 12:37:42;;;;;;;;;;;;;;;;;;6116215;23;20069;-57
2023/06/07 12:40:15;;;;;;;10.73;4.78;;;;;;;;;;6113756;23;20302;-56
2023/06/07 12:42:43;;;;;;;8.30;4.63;;;;;;;;;;6112313;23;20029;-57
2023/06/07 12:45:17;;;;;;;8.43;4.75;;;;;;;;;;6115656;23;20049;-56
2023/06/07 12:47:44;;;;;;;;;;;;;;;;;;6114992;23;20029;-56
2023/06/07 12:50:20;;;;;;;12.00;5.00;;;;;;;;;;6115450;23;19921;-53
2023/06/07 12:52:54;;;;;;;11.98;5.45;;;;;;;;;;6116534;23;20022;-50
2023/06/07 12:55:22;;;;;;;10.43;5.10;;;;;;;;;;6115839;23;20017;-54
2023/06/07 12:57:55;;;;;;;8.88;4.30;;;;;;;;;;6117064;23;20037;-51
2023/06/07 13:00:23;;;;;;;;;;;;;;;;;;6117413;23;20063;-57
2023/06/07 13:02:50;;;;;;;9.52;4.20;;;;;;;;;;6117084;23;19917;-59
2023/06/07 13:05:25;;;;;;;9.13;4.85;;;;;;;;;;6115924;23;20494;-59
2023/06/07 13:07:52;;;;;;;9.73;4.75;;;;;;;;;;6114283;23;20030;-59
2023/06/07 13:10:26;;;;;;;9.57;4.35;;;;;;;;;;6117144;23;20030;-59
2023/06/07 13:12:54;;;;;;;;;;;;;;;;;;6116721;23;20026;-58
2023/06/07 13:15:22;;;;;;;8.00;4.60;;;;;;;;;;6116339;23;19916;-59
2023/06/07 13:17:55;;;;;;;9.30;4.30;;;;;;;;;;6092964;23;20433;-53
2023/06/07 13:20:23;;;;;;;10.38;4.80;;;;;;;;;;6116492;23;20085;-55
2023/06/07 13:22:50;;;;;;;9.38;4.30;;;;;;;;;;6117538;23;20021;-52
2023/06/07 13:25:25;;;;;;;9.48;4.75;;;;;;;;;;6115201;23;20022;-55
2023/06/07 13:27:53;;;;;;;8.70;5.20;;;;;;;;;;6115666;23;20033;-55
2023/06/07 13:30:27;;;;;;;11.57;4.70;;;;;;;;;;6117102;23;20077;-59
2023/06/07 13:32:54;;;;;;;8.80;4.88;;;;;;;;;;6116730;23;20026;-58
2023/06/07 13:35:29;;;;;;;10.73;5.05;;;;;;;;;;6116654;23;20064;-59
2023/06/07 13:38:01;;;;;;;7.93;5.00;;;;;;;;;;6116755;23;20037;-58
2023/06/07 13:40:36;;;;;;;8.98;4.65;;;;;;;;;;6115213;23;20075;-59
2023/06/07 13:43:03;;;;;;;;;;;;;;;;;;6116689;23;20026;-59
2023/06/07 13:45:30;;;;;;;8.23;4.72;;;;;;;;;;6116607;23;19921;-55
2023/06/07 13:48:10;;;;;;;9.50;4.93;;;;;;;;;;6116273;23;20485;-53
2023/06/07 13:50:42;;;;;;;8.60;5.00;;;;;;;;;;6115122;23;20026;-51
2023/06/07 13:53:19;;;;;;;9.70;4.95;;;;;;;;;;6117201;23;20025;-53
2023/06/07 13:55:47;;;;;;;10.02;4.78;;;;;;;;;;6115388;23;20022;-64
2023/06/07 13:58:14;;;;;;;8.07;5.35;;;;;;;;;;6114858;23;20069;-50
2023/06/07 14:00:49;;;;;;;11.88;5.57;;;;;;;;;;6091143;23;20037;-55
2023/06/07 14:03:16;;;;;;;;;;;;;;;;;;6115490;23;20029;-55
2023/06/07 14:05:44;;;;;;;14.77;6.00;;;;;;;;;;6116306;23;19920;-56
2023/06/07 14:08:17;;;;;;;10.30;5.97;;;;;;;;;;6115631;23;20305;-55
2023/06/07 14:10:44;;;;;;;;;;;;;;;;;;6114442;23;20088;-55
2023/06/07 14:13:19;;;;;;;12.35;5.70;;;;;;;;;;6111998;23;19916;-55
2023/06/07 14:15:46;;;;;;;;;;;;;;;;;;6117230;23;20532;-58
2023/06/07 14:18:13;;;;;;;14.32;6.30;;;;;;;;;;6112888;23;19925;-55
2023/06/07 14:20:47;;;;;;;14.20;5.70;;;;;;;;;;6118116;23;20772;-54
2023/06/07 14:23:14;;;;;;;11.00;5.55;;;;;;;;;;6089725;23;20386;-57
2023/06/07 14:25:41;;;;;;;10.13;5.82;;;;;;;;;;6117690;23;20022;-53
2023/06/07 14:28:17;;;;;;;10.50;5.97;;;;;;;;;;6115670;23;20026;-56
2023/06/07 14:30:45;;;;;;;12.45;5.75;;;;;;;;;;6115304;23;20337;-54
2023/06/07 14:33:20;;;;;;;11.38;5.60;;;;;;;;;;6116503;23;20429;-62
2023/06/07 14:35:47;;;;;;;15.40;6.32;;;;;;;;;;6118425;23;20073;-57
2023/06/07 14:38:14;;;;;;;18.25;6.90;;;;;;;;;;6116923;23;20045;-54
2023/06/07 14:40:48;;;;;;;17.63;6.93;;;;;;;;;;6116780;23;20022;-55
2023/06/07 14:43:15;;;;;;;;;;;;;;;;;;6114152;23;20030;-52
2023/06/07 14:45:48;;;;;;;13.88;6.47;;;;;;;;;;6115768;23;19971;-56
2023/06/07 14:48:22;;;;;;;15.57;6.95;;;;;;;;;;6112788;23;20038;-55
2023/06/07 14:50:56;;;;;;;15.20;5.82;;;;;;;;;;6116476;23;20030;-58
2023/06/07 14:53:23;;;;;;;14.43;6.60;;;;;;;;;;6109730;23;20289;-61
2023/06/07 14:55:50;;;;;;;16.77;6.35;;;;;;;;;;6114723;23;20646;-54
2023/06/07 14:58:25;;;;;;;15.48;6.45;;;;;;;;;;6110061;23;20572;-54
2023/06/07 15:00:52;;;;;;;14.50;6.22;;;;;;;;;;6114921;23;20422;-53